Detall de PIREP

Printer-friendly versionPDF version

[2017/02/26 07:32:00]
Flight IATA:CT1004
Pilot Number:012
Company ICAO:CAT
Aircraft Type:BE20/A
PAX:6
Departing Airport: EGLC
Destination Airport: LEBL
Alternate Airport:LEGE
Online: VATSIM
Route:LYD UM189 DRAKE UL151 SITET UN859 ETRAT UQ203 PUMAL
Flight Level:F330
No Slew and time accel
No pause
Crash detect
Detect pilot in Cockpit between each 30 and 45 minutes
07:32 Zero fuel Weight: 9767 Lbs, Fuel Weight: 1979 Lbs
07:32 VATSIM:EGLC 260720Z AUTO 23011KT 9999 -RA BKN013 BKN018 BKN023 11/09 Q1008
07:32 VATSIM:LEBL 260700Z 32008KT 9999 FEW025 06/04 Q1022 NOSIG
07:32 MWC 2017 BARCELONA CHARTER
07:33 Parking Brakes off
07:39 Take-off
07:39 Take off Weight: 11727 Lbs
07:39 Wind: 231º @ 011 Knots Heading: 268º
07:39 POS N51º 30´ 18´´ E000º 03´ 01´´
07:39 Gear Up: 123 Knots
07:39 Flaps:1 at 123 Knots
07:39 Flaps:0 at 130 Knots
07:54 Wind:262º@049 Knots Heading: 169ºGround Speed: 195 Knots Altitude 19993 ft
08:06 TOC
08:06 Fuel Weight: 1640 Lb
08:09 Wind:259º@062 Knots Heading: 227º Ground Speed: 186 Knots Altitude 32900 ft
08:24 Wind:255º@063 Knots Heading: 180º Ground Speed: 244 Knots Altitude 32959 ft
08:39 Wind:251º@070 Knots Heading: 184º Ground Speed: 238 Knots Altitude 33005 ft
08:54 Wind:250º@066 Knots Heading: 184º Ground Speed: 237 Knots Altitude 33083 ft
09:09 Wind:249º@077 Knots Heading: 186º Ground Speed: 233 Knots Altitude 33126 ft
09:24 Wind:249º@083 Knots Heading: 187º Ground Speed: 232 Knots Altitude 33202 ft
09:39 Wind:253º@067 Knots Heading: 184º Ground Speed: 242 Knots Altitude 33221 ft
09:54 Wind:298º@035 Knots Heading: 176º Ground Speed: 276 Knots Altitude 33254 ft
09:55 TOD
09:55 Fuel Weight: 759 Lb
10:09 Wind:265º@036 Knots Heading: 178º Ground Speed: 295 Knots Altitude 22368 ft
10:24 Wind:315º@007 Knots Heading: 146º Ground Speed: 280 Knots Altitude 7828 ft
10:31 Flaps:1 at 204 Knots
10:32 Gear Down: 173 Knots
10:32 Flaps:2 at 175 Knots
10:35 TouchDown:Rate -225 ft/min Speed: 93 Knots
10:36 Flaps:0 at 25 Knots
10:36 VATSIM:LEBL 261000Z 27004KT 9999 FEW025 12/07 Q1023 NOSIG
10:36 Land
10:36 Wind:269º@004 Knots
10:36 Heading: 243º
10:36 Flight Duration: 02:57
10:36 Landing Weight: 10134 Lbs
10:36 POS N41º 17´ 52´´ E002º 04´ 53´´
10:39 Parking brakes on
10:39 Block to Block Duration: 03:06
10:39 Final Fuel: 359 Lbls
10:39 Spent Fuel: 1620 Lbls
10:39 Flight Length: 682 NM
10:39 TOD Land Length: 178 NM

Exportar CSV

Powered by Drupal - Modified by Danger4k